Danville Regional Airport Danville US
ICAO: KDAN
IATA: DAN
Category: Medium
Scheduled Services: No

Elevation: 571 ft
TransAlt. 18000 ft.

Airport Communications:
ASOS:128.125
WASHINGTON CNTR:124.05
LEESBURG RDO:122.2
CTAF/UNICOM:123.05

KDAN Zoom In..

If you have problems with the map follow the link
https://www.worldairports.se/pages/airport.php?
ICAO=KDAN

Runways:

(A) RW 02 length 6500 ft width 150 ft
ILS 110.70 / hdg 25

(B) RW 13 length 4020 ft width 100 ft
---- / hdg 134

(C) RW 20 length 6500 ft width 150 ft
---- / hdg 205

(D) RW 31 length 4020 ft width 100 ft
---- / hdg 314

Location; KDAN
Day. 22 / Time. 16.53 Zulu
* Altimeter: 30.38
* Temperature: 07° c. 44.6°f.
* Wind from: 060° Speed 10 kn.
Dewpoint: 06° c.
Visibility: 10 Statute Miles.
Clouds: Broken 800 ft.
Clouds: Overcast 1300 ft.

KDAN 221653Z AUTO 06010KT 10SM BKN008 OVC013 07/06 A3038 RMK AO2 RAE13B31E52 CIG 004V012 SLP283 P0000 T00720056


Wind From 060°
Speed 10 kn.

 
 
jpsmedia.com for Web Design worldairports.se 2019   terms of use